createdAt,value
2022-09-21T00:05:21.009Z,84.07
2022-09-21T00:10:42.813Z,83.25
2022-09-21T00:16:08.889Z,83.23
2022-09-21T00:21:30.758Z,84.19
2022-09-21T00:26:52.459Z,83.79
2022-09-21T00:32:15.520Z,84.68
2022-09-21T00:37:37.293Z,86.21
2022-09-21T00:43:16.479Z,86.95
2022-09-21T00:48:38.412Z,86.35
2022-09-21T00:54:09.410Z,85.54
2022-09-21T00:59:34.204Z,85.90
2022-09-21T01:04:56.649Z,85.76
2022-09-21T01:10:19.292Z,86.28
2022-09-21T01:15:59.636Z,85.72
2022-09-21T01:21:26.674Z,85.73
2022-09-21T01:27:33.275Z,85.69
2022-09-21T01:33:04.273Z,83.63
2022-09-21T01:38:42.014Z,84.98
2022-09-21T01:44:09.464Z,85.76
2022-09-21T01:49:38.224Z,86.91
2022-09-21T01:55:16.587Z,86.69
2022-09-21T02:00:40.207Z,87.45
2022-09-21T02:06:04.624Z,86.44
2022-09-21T02:11:26.555Z,87.36
2022-09-21T02:17:00.709Z,87.44
2022-09-21T02:22:22.321Z,87.97
2022-09-21T02:28:07.538Z,88.10
2022-09-21T02:33:37.885Z,87.14
2022-09-21T02:39:25.066Z,85.04
2022-09-21T02:44:54.748Z,84.45
2022-09-21T02:50:34.422Z,84.16
2022-09-21T02:55:59.051Z,83.40
2022-09-21T03:01:22.517Z,84.06
2022-09-21T03:06:44.308Z,83.93
2022-09-21T03:12:06.049Z,86.66
2022-09-21T03:17:27.818Z,87.58
2022-09-21T03:22:49.581Z,86.04
2022-09-21T03:28:12.567Z,86.21
2022-09-21T03:33:34.305Z,87.34
2022-09-21T03:38:56.108Z,87.47
2022-09-21T03:44:18.064Z,88.75
2022-09-21T03:49:39.753Z,87.54
2022-09-21T03:55:03.250Z,86.05
2022-09-21T04:00:24.970Z,86.05
2022-09-21T04:05:46.699Z,86.20
2022-09-21T04:11:12.748Z,85.73
2022-09-21T04:16:34.541Z,85.51
2022-09-21T04:21:56.352Z,85.55
2022-09-21T04:27:18.243Z,86.71
2022-09-21T04:32:40.405Z,87.82
2022-09-21T04:38:02.142Z,88.34
2022-09-21T04:43:24.124Z,86.82
2022-09-21T04:48:46.676Z,86.67
2022-09-21T04:54:08.465Z,87.29
2022-09-21T04:59:30.195Z,87.41
2022-09-21T05:04:51.901Z,88.19
2022-09-21T05:10:13.705Z,87.79
2022-09-21T05:15:39.409Z,87.60
2022-09-21T05:21:02.534Z,87.36
2022-09-21T05:26:25.096Z,87.84
2022-09-21T05:32:03.207Z,87.03
2022-09-21T05:37:50.616Z,87.90
2022-09-21T05:43:12.619Z,87.86
2022-09-21T05:48:43.088Z,87.81
2022-09-21T05:54:12.233Z,87.70
2022-09-21T05:59:41.328Z,87.13
2022-09-21T06:05:10.438Z,87.15
2022-09-21T06:10:34.576Z,86.88
2022-09-21T06:15:57.044Z,85.04
2022-09-21T06:21:18.945Z,86.95
2022-09-21T06:26:40.699Z,86.36
2022-09-21T06:32:04.122Z,84.51
2022-09-21T06:37:25.862Z,86.60
2022-09-21T06:42:47.595Z,87.03
2022-09-21T06:48:10.067Z,86.97
2022-09-21T06:53:34.039Z,87.91
2022-09-21T06:58:56.089Z,88.04
2022-09-21T07:04:20.870Z,87.75
2022-09-21T07:15:29.944Z,84.94
2022-09-21T07:20:51.768Z,83.06
2022-09-21T07:26:13.732Z,82.41
2022-09-21T07:31:35.562Z,83.86
2022-09-21T07:36:57.309Z,84.33
2022-09-21T07:42:20.534Z,85.09
2022-09-21T07:47:42.289Z,85.08
2022-09-21T07:53:04.100Z,82.71
2022-09-21T07:58:44.478Z,83.71
2022-09-21T08:04:08.663Z,80.73
2022-09-21T08:09:30.561Z,79.53
2022-09-21T08:14:52.564Z,81.20
2022-09-21T08:20:14.563Z,81.59
2022-09-21T08:25:36.336Z,80.26
2022-09-21T08:31:03.366Z,77.60
2022-09-21T08:36:25.427Z,79.54
2022-09-21T08:42:14.491Z,76.55
2022-09-21T08:47:59.202Z,78.91
2022-09-21T08:53:34.513Z,79.48
2022-09-21T08:58:56.292Z,76.77
2022-09-21T09:04:20.736Z,78.72
2022-09-21T09:10:14.960Z,78.44
2022-09-21T09:15:54.558Z,75.91
2022-09-21T09:21:34.308Z,77.65
2022-09-21T09:27:16.797Z,74.05
2022-09-21T09:32:53.167Z,75.61
2022-09-21T09:38:34.041Z,73.34
2022-09-21T09:44:34.536Z,73.74
2022-09-21T09:50:21.762Z,71.13
2022-09-21T09:55:47.862Z,70.86
2022-09-21T10:01:29.748Z,69.47
2022-09-21T10:06:51.709Z,69.73
2022-09-21T10:12:23.863Z,67.16
2022-09-21T10:17:46.901Z,66.81
2022-09-21T10:23:13.371Z,67.00
2022-09-21T10:28:36.121Z,65.94
2022-09-21T10:34:03.958Z,64.11
2022-09-21T10:39:27.261Z,63.23
2022-09-21T10:44:52.959Z,61.17
2022-09-21T10:50:26.822Z,61.92
2022-09-21T10:56:17.435Z,61.10
2022-09-21T11:01:48.610Z,60.06
2022-09-21T11:07:26.873Z,59.07
2022-09-21T11:13:17.868Z,58.44
2022-09-21T11:19:01.887Z,59.81
2022-09-21T11:24:50.172Z,60.81
2022-09-21T11:30:13.545Z,60.20
2022-09-21T11:35:51.967Z,60.40
2022-09-21T11:41:30.922Z,59.27
2022-09-21T11:47:35.533Z,58.46
2022-09-21T11:53:28.219Z,56.67
2022-09-21T11:58:53.331Z,56.59
2022-09-21T12:04:36.744Z,57.39
2022-09-21T12:10:15.118Z,54.64
2022-09-21T12:15:48.034Z,54.53
2022-09-21T12:21:19.524Z,52.34
2022-09-21T12:26:52.321Z,52.60
2022-09-21T12:32:37.548Z,50.45
2022-09-21T12:38:05.317Z,50.27
2022-09-21T12:43:51.809Z,50.03
2022-09-21T12:49:26.241Z,49.44
2022-09-21T12:55:17.576Z,49.37
2022-09-21T13:00:47.670Z,49.84
2022-09-21T13:06:39.703Z,49.66
2022-09-21T13:12:09.110Z,50.04
2022-09-21T13:17:33.064Z,50.20
2022-09-21T13:23:02.560Z,49.87
2022-09-21T13:28:41.621Z,49.26
2022-09-21T13:34:21.409Z,49.33
2022-09-21T13:39:45.415Z,48.78
2022-09-21T13:45:19.757Z,48.60
2022-09-21T13:50:44.131Z,48.57
2022-09-21T13:56:09.885Z,46.86
2022-09-21T14:01:50.997Z,46.43
2022-09-21T14:07:14.165Z,46.10
2022-09-21T14:12:45.070Z,46.60
2022-09-21T14:18:20.446Z,46.17
2022-09-21T14:24:02.160Z,45.29
2022-09-21T14:29:29.689Z,45.38
2022-09-21T14:34:56.513Z,45.85
2022-09-21T14:40:24.631Z,45.19
2022-09-21T14:46:24.061Z,45.91
2022-09-21T14:52:22.491Z,45.65
2022-09-21T14:58:11.629Z,44.74
2022-09-21T15:04:12.162Z,45.46
2022-09-21T15:10:06.802Z,45.40
2022-09-21T15:15:46.963Z,43.80
2022-09-21T15:21:21.684Z,44.23
2022-09-21T15:26:43.670Z,44.44
2022-09-21T15:32:07.176Z,44.87
2022-09-21T15:37:30.450Z,44.08
2022-09-21T15:43:17.044Z,44.47
2022-09-21T15:48:42.122Z,43.55
2022-09-21T15:54:15.666Z,42.35
2022-09-21T15:59:37.443Z,43.06
2022-09-21T16:04:59.206Z,43.58
2022-09-21T16:10:30.065Z,42.55
2022-09-21T16:16:09.740Z,43.27
2022-09-21T16:21:37.717Z,43.53
2022-09-21T16:27:02.625Z,44.24
2022-09-21T16:32:31.901Z,44.34
2022-09-21T16:37:57.495Z,44.92
2022-09-21T16:43:20.790Z,45.42
2022-09-21T16:48:42.591Z,46.32
2022-09-21T16:54:04.708Z,46.22
2022-09-21T16:59:27.567Z,46.66
2022-09-21T17:04:49.358Z,47.73
2022-09-21T17:10:14.822Z,50.01
2022-09-21T17:15:43.045Z,50.05
2022-09-21T17:21:05.283Z,51.80
2022-09-21T17:26:28.131Z,53.32
2022-09-21T17:31:54.914Z,53.07
2022-09-21T17:37:16.674Z,52.70
2022-09-21T17:42:41.220Z,53.93
2022-09-21T17:48:03.891Z,54.56
2022-09-21T17:53:36.904Z,55.45
2022-09-21T17:59:05.679Z,55.42
2022-09-21T18:04:31.080Z,56.20
2022-09-21T18:09:53.190Z,55.34
2022-09-21T18:15:44.683Z,56.12
2022-09-21T18:21:18.472Z,57.14
2022-09-21T18:26:41.908Z,56.61
2022-09-21T18:32:42.761Z,57.14
2022-09-21T18:38:20.784Z,57.42
2022-09-21T18:44:08.954Z,57.53
2022-09-21T18:49:45.796Z,56.45
2022-09-21T18:55:18.268Z,57.18
2022-09-21T19:00:41.938Z,57.75
2022-09-21T19:06:37.581Z,57.73
2022-09-21T19:12:36.698Z,58.33
2022-09-21T19:18:28.496Z,57.66
2022-09-21T19:23:56.337Z,58.24
2022-09-21T19:29:24.023Z,58.65
2022-09-21T19:34:45.917Z,59.31
2022-09-21T19:40:08.553Z,60.13
2022-09-21T19:45:48.112Z,60.28
2022-09-21T19:51:17.557Z,60.38
2022-09-21T19:57:06.475Z,60.66
2022-09-21T20:02:42.890Z,60.34
2022-09-21T20:08:18.996Z,61.51
2022-09-21T20:13:53.472Z,61.99
2022-09-21T20:19:37.464Z,62.51
2022-09-21T20:25:13.734Z,64.07
2022-09-21T20:30:38.375Z,64.84
2022-09-21T20:36:00.441Z,65.84
2022-09-21T20:41:24.396Z,66.56
2022-09-21T20:46:46.136Z,67.40
2022-09-21T20:52:09.494Z,67.92
2022-09-21T20:57:31.834Z,67.31
2022-09-21T21:02:54.437Z,66.22
2022-09-21T21:08:16.205Z,67.45
2022-09-21T21:13:37.988Z,66.67
2022-09-21T21:19:00.204Z,66.67
2022-09-21T21:24:39.995Z,67.56
2022-09-21T21:30:02.239Z,68.37
2022-09-21T21:35:24.059Z,69.28
2022-09-21T21:40:45.890Z,70.53
2022-09-21T21:46:09.511Z,71.24
2022-09-21T21:51:31.587Z,71.37
2022-09-21T21:56:53.740Z,71.92
2022-09-21T22:02:15.693Z,73.18
2022-09-21T22:07:39.448Z,72.25
2022-09-21T22:13:01.914Z,73.77
2022-09-21T22:18:23.662Z,73.91
2022-09-21T22:23:45.373Z,73.61
2022-09-21T22:29:09.534Z,73.66
2022-09-21T22:34:31.271Z,73.77
2022-09-21T22:39:53.684Z,73.48
2022-09-21T22:45:15.573Z,74.29
2022-09-21T22:50:38.354Z,76.10
2022-09-21T22:56:08.477Z,76.82
2022-09-21T23:01:34.067Z,75.73
2022-09-21T23:06:55.781Z,75.40
2022-09-21T23:12:17.528Z,76.82
2022-09-21T23:17:39.336Z,77.27
2022-09-21T23:23:01.215Z,76.38
2022-09-21T23:28:22.970Z,76.08
2022-09-21T23:33:51.149Z,76.02
2022-09-21T23:39:15.324Z,77.47
2022-09-21T23:44:37.161Z,78.08
2022-09-21T23:49:58.875Z,77.73
2022-09-21T23:55:20.652Z,77.58
